Tiempo atmosférico en la estación meteorológica de Mogán, Puerto, Las Palmas (10 m.)



Fecha
DESCASC
Temp. máxima en grados centígrados (hora)
DESCASC
Temp. mínima en grados centígrados (hora)
DESCASC
Temp. media en grados centígrados
DESCASC
Racha de viento máxima en m/sg (hora)
DESCASC
Velocidad máxima media en intervalos de 10 minutos(hora)
DESCASC
Precipitaciones diarias en mm
DESCASC
Precipitaciones de 00:00 a 06:00 en mm
DESCASC
Precipitaciones de 06:00 a 12:00 en mm
DESCASC
Precipitaciones de 12:00 a 18:00 en mm
DESCASC
Precipitaciones de 18:00 a 24:00 en mm
DESCASC
08-12-2019 23.7 (11:20) 15.2 (07:40) 19.5 8.06 (17:20) 5.83 (14:20) 0 0 0 0 0
07-12-2019 25.1 (14:20) 16.2 (08:20) 20.7 6.11 (03:20) 4.17 (12:30) 0 0 0 0 0
06-12-2019 22.9 (13:40) 16.3 (03:40) 19.6 11.39 (17:40) 6.11 (15:10) 0.4 0.4 0 0 0
05-12-2019 21.6 (12:10) 17 (00:00) 19.3 16.11 (17:40) 6.94 (13:00) 0.9 0 0 0.3 0.6
04-12-2019 22.7 (17:00) 16.2 (00:00) 19.5 13.33 (13:00) 9.44 (12:40) 0 0 0 0 0
03-12-2019 24 (14:10) 18.2 (00:00) 21.1 9.72 (11:30) 6.11 (04:20) 0 0 0 0 0
02-12-2019 23.9 (16:10) 16.3 (00:00) 20.1 11.11 (18:30) 5.83 (18:50) 0 0 0 0 0
01-12-2019 23.9 (10:50) 17.2 (00:00) 20.6 7.5 (14:30) 5.83 (14:30) 0 0 0 0 0
30-11-2019 27.6 (16:40) 19.6 (00:00) 23.6 6.11 (14:20) 5 (14:30) 0 0 0 0 0
29-11-2019 26.1 (15:00) 17.7 (00:00) 21.9 8.89 (13:30) 5.28 (12:10) 0 0 0 0 0
28-11-2019 -- (--) -- (--) -- 5.56 (07:10) 4.44 (08:10) 0 0 0 0 0
27-11-2019 -- (--) -- (--) -- 5.28 (03:40) 4.17 (03:40) 0 0 0 0 0
26-11-2019 24.5 (10:30) 16.8 (00:00) 20.6 5.28 (17:00) 4.44 (16:40) 0 0 0 0 0
25-11-2019 23.9 (10:50) 17.7 (00:00) 20.8 6.67 (18:10) 4.72 (18:40) 0 0 0 0 0
24-11-2019 24.3 (10:30) 16.9 (00:00) 20.6 6.39 (23:50) 5 (14:20) 0 0 0 0 0
23-11-2019 23.3 (11:00) 19.3 (00:00) 21.3 6.11 (18:30) 5.28 (18:30) 0 0 0 0 0
22-11-2019 24.2 (15:10) 18.2 (00:00) 21.2 6.39 (10:30) 5.56 (10:30) 0 0 0 0 0
21-11-2019 22.8 (12:00) 18.3 (00:00) 20.5 6.94 (23:00) 5.28 (14:40) 0 0 0 0 0
20-11-2019 23.9 (10:20) 16.6 (00:00) 20.3 5.83 (16:00) 4.17 (05:10) 0.3 0 0 0 0.3
19-11-2019 23.3 (11:00) 16.2 (00:00) 19.8 7.5 (14:30) 6.39 (14:20) 0 0 0 0 0
18-11-2019 22.8 (11:50) 15.6 (00:00) 19.2 5.28 (06:00) 4.44 (07:10) 0 0 0 0 0
17-11-2019 22.3 (10:50) 16.6 (00:00) 19.4 7.5 (15:10) 5.83 (15:10) 0 0 0 0 0
16-11-2019 23.4 (15:00) 17.6 (00:00) 20.5 7.22 (13:00) 5.83 (16:20) 0 0 0 0 0
15-11-2019 23.4 (13:00) 17.2 (00:00) 20.3 11.39 (15:30) 6.39 (16:30) 0 0 0 0 0
14-11-2019 24.6 (10:00) 17.9 (00:00) 21.3 9.72 (02:20) 4.17 (03:20) 0 0 0 0 0
13-11-2019 25.5 (15:20) 18.4 (00:00) 21.9 8.89 (15:50) 6.67 (15:50) 0 0 0 0 0
12-11-2019 25.8 (13:30) 18.5 (00:00) 22.1 8.33 (02:20) 4.17 (02:20) 0 0 0 0 0

Gráficas

Temp. máximas Temp. mínimas Temp. medias Precipitaciones Rachas de viento máximas Velocidades máximas media en intervalos de 10 minutos

Datos horarios

Fecha y hora oficial Temperatura (ºC) Velocidad del viento (km/h) Dirección del viento Racha (km/h) Dirección de racha Precipitación (mm) Presión (hPa) Tendencia (hPa) Humedad (%)
2019-12-11 23:00:00 18.6 3 Norte 5 Nordeste 0 -- -- 76
2019-12-11 22:00:00 19.1 0 Calma 8 Norte 0 -- -- 75
2019-12-11 21:00:00 19.6 6 Oeste 22 Sudoeste 0 -- -- 75
2019-12-11 20:00:00 19.7 17 Sudoeste 27 Sudoeste 0 -- -- 75
2019-12-11 19:00:00 19.7 14 Sur -- -- -- -- -- 75
2019-12-11 18:00:00 20.1 9 Sudeste 22 Sur 0 -- -- 73
2019-12-11 17:00:00 20.5 18 Sudoeste 22 Sudoeste 0 -- -- 73
2019-12-11 16:00:00 21.7 8 Sudoeste 17 Sudoeste 0 -- -- 68
2019-12-11 15:00:00 22.4 5 Sudoeste 11 Oeste 0 -- -- 68
2019-12-11 14:00:00 21.9 9 Oeste 13 Oeste 0 -- -- 69
2019-12-11 13:00:00 21.7 8 Sudoeste 14 Oeste 0 -- -- 70
2019-12-11 12:00:00 21.9 9 Oeste 14 Noroeste 0 -- -- 71
2019-12-11 11:00:00 21.6 8 Oeste 10 Oeste 0 -- -- 68
2019-12-11 10:00:00 18.5 7 Norte 15 Norte 0 -- -- 65
2019-12-11 09:00:00 16 13 Norte 18 Norte 0 -- -- 70
2019-12-11 08:00:00 15.6 15 Norte 20 Nordeste 0 -- -- 72
2019-12-11 07:00:00 15.7 14 Norte 19 Norte 0 -- -- 73
2019-12-11 06:00:00 16 15 Norte 19 Nordeste 0 -- -- 74
2019-12-11 05:00:00 16.2 15 Norte 20 Norte 0 -- -- 75
2019-12-11 04:00:00 15.8 16 Norte 19 Norte 0 -- -- 76
2019-12-11 03:00:00 16.1 15 Norte 20 Norte 0 -- -- 77
2019-12-11 02:00:00 16.6 14 Norte 19 Norte 0 -- -- 77
2019-12-11 01:00:00 17.1 12 Norte 17 Norte 0 -- -- 77
2019-12-11 00:00:00 16.8 14 Norte 16 Norte 0 -- -- 77
2019-12-10 23:00:00 17.3 12 Norte 15 Norte 0 -- -- 75
2019-12-10 22:00:00 17.3 9 Norte 13 Norte 0 -- -- 74
2019-12-10 21:00:00 17.9 8 Norte 10 Nordeste 0 -- -- 73
2019-12-10 20:00:00 19.1 5 Sudoeste 11 Sudoeste 0 -- -- 72
2019-12-10 19:00:00 19.3 5 Sudoeste 12 Sudoeste 0 -- -- 71
2019-12-10 18:00:00 20.1 6 Sudoeste 16 Sudoeste 0 -- -- 66
2019-12-10 17:00:00 20.7 9 Sur 15 Sur 0 -- -- 65
2019-12-10 16:00:00 20.7 10 Sudoeste 24 Sudoeste 0 -- -- 65
2019-12-10 15:00:00 21.7 9 Oeste 17 Oeste 0 -- -- 61
2019-12-10 14:00:00 21.6 13 Oeste 19 Oeste 0 -- -- 64
2019-12-10 13:00:00 21.5 9 Oeste 14 Oeste 0 -- -- 62
2019-12-10 12:00:00 21.5 6 Sudoeste 11 Sur 0 -- -- 62
2019-12-10 11:00:00 21 6 Sudeste 10 Norte 0 -- -- 62
2019-12-10 10:00:00 17.4 10 Norte 17 Norte 0 -- -- 51
2019-12-10 09:00:00 14.9 14 Norte 18 Norte 0 -- -- 54
2019-12-10 08:00:00 14.8 14 Norte 20 Norte 0 -- -- 58
2019-12-10 07:00:00 15 18 Norte 21 Norte 0 -- -- 59
2019-12-10 06:00:00 15.2 15 Norte 19 Norte 0 -- -- 61
2019-12-10 05:00:00 15.8 16 Norte 18 Norte 0 -- -- 60
2019-12-10 04:00:00 16 14 Norte 18 Norte 0 -- -- 61
2019-12-10 03:00:00 16 15 Norte 18 Norte 0 -- -- 62
2019-12-10 02:00:00 16.6 14 Norte 18 Norte 0 -- -- 64
2019-12-10 01:00:00 16.9 13 Norte 15 Norte 0 -- -- 64
2019-12-10 00:00:00 17.4 11 Norte 17 Norte 0 -- -- 62
2019-12-09 23:00:00 17.9 12 Norte 16 Norte 0 -- -- 64
2019-12-09 22:00:00 17.7 10 Norte 14 Sudeste 0 -- -- 62
2019-12-09 21:00:00 19.8 12 Sudeste 16 Sudeste 0 -- -- 68
2019-12-09 20:00:00 19.5 4 Nordeste 6 Nordeste 0 -- -- 60
2019-12-09 19:00:00 20.4 4 Oeste 7 Oeste 0 -- -- 62
2019-12-09 18:00:00 21.6 4 Oeste 8 Oeste 0 -- -- 54
2019-12-09 17:00:00 23.2 5 Oeste 10 Oeste 0 -- -- 53
2019-12-09 16:00:00 23.7 5 Oeste 8 Oeste 0 -- -- 52
2019-12-09 15:00:00 24.6 3 Sur 11 Oeste 0 -- -- 54
2019-12-09 14:00:00 23.1 6 Sudoeste 12 Oeste 0 -- -- 56
2019-12-09 13:00:00 22.6 6 Oeste 15 Oeste 0 -- -- 56
2019-12-09 12:00:00 21.6 10 Oeste 15 Oeste 0 -- -- 59
2019-12-09 11:00:00 20.8 12 Oeste 23 Oeste 0 -- -- 55
2019-12-09 10:00:00 19.2 9 Norte 18 Nordeste 0 -- -- 50
2019-12-09 09:00:00 16.8 13 Norte 18 Norte 0 -- -- 58
2019-12-09 08:00:00 15.6 15 Norte 20 Norte 0 -- -- 61
2019-12-09 07:00:00 15.7 15 Norte 18 Norte 0 -- -- 61
2019-12-09 06:00:00 16.5 14 Norte 18 Norte 0 -- -- 64
2019-12-09 05:00:00 15.9 15 Norte 19 Norte 0 -- -- 67
2019-12-09 04:00:00 16.3 15 Norte 19 Norte 0 -- -- 68
2019-12-09 03:00:00 16.5 13 Norte 18 Norte 0 -- -- 67
2019-12-09 02:00:00 16.7 13 Norte 18 Norte 0 -- -- 67
2019-12-09 01:00:00 16.7 13 Norte 17 Norte 0 -- -- 67
2019-12-09 00:00:00 17.3 13 Norte 18 Nordeste 0 -- -- 66
2019-12-08 23:00:00 18.1 11 Norte 18 Nordeste 0 -- -- 64
2019-12-08 22:00:00 18.7 13 Nordeste 18 Norte 0 -- -- 65
2019-12-08 21:00:00 18.1 11 Norte 16 Sudoeste 0 -- -- 66
2019-12-08 20:00:00 19.9 11 Sudoeste 19 Sudoeste 0 -- -- 66
2019-12-08 19:00:00 19.9 12 Sudoeste 20 Sudoeste 0 -- -- 66
2019-12-08 18:00:00 20.2 18 Sudoeste 29 Sudoeste 0 -- -- 64
2019-12-08 17:00:00 21 15 Sudoeste 19 Sudoeste 0 -- -- 62
2019-12-08 16:00:00 22.9 5 Sur 24 Oeste 0 -- -- 57
2019-12-08 15:00:00 21.2 21 Sudoeste 29 Oeste 0 -- -- 60
2019-12-08 14:00:00 21.4 19 Oeste 28 Oeste 0 -- -- 59
2019-12-08 13:00:00 21.1 18 Sudoeste 22 Sudoeste 0 -- -- 59
2019-12-08 12:00:00 22.2 13 Sur 18 Sur 0 -- -- 55
2019-12-08 11:00:00 23 3 Este 8 Este 0 -- -- 58
2019-12-08 10:00:00 19.7 3 Nordeste 16 Norte 0 -- -- 64
2019-12-08 09:00:00 16.1 13 Norte 17 Norte 0 -- -- 64
2019-12-08 08:00:00 15.8 13 Norte 18 Norte 0 -- -- 65
2019-12-08 07:00:00 16.2 14 Norte 18 Norte 0 -- -- 69
2019-12-08 06:00:00 16.7 12 Norte 15 Norte 0 -- -- 71
2019-12-08 05:00:00 17.1 10 Norte 17 Norte 0 -- -- 71
2019-12-08 04:00:00 16.8 11 Norte 16 Norte 0 -- -- 72
2019-12-08 03:00:00 17.2 11 Norte 14 Norte 0 -- -- 72
2019-12-08 02:00:00 17.7 9 Norte 12 Norte 0 -- -- 71
2019-12-08 01:00:00 18.2 9 Norte 12 Norte 0 -- -- 70
2019-12-08 00:00:00 18.8 6 Norte 10 Norte 0 -- -- 68
2019-12-07 23:00:00 19.2 6 Nordeste 15 Este 0 -- -- 68
2019-12-07 22:00:00 20 3 Sur 9 Sudoeste 0 -- -- 70
2019-12-07 21:00:00 20 3 Nordeste 10 Nordeste 0 -- -- 67
2019-12-07 20:00:00 20.2 9 Este 19 Sudeste 0 -- -- 69
2019-12-07 19:00:00 20.2 10 Sudeste 16 Sudeste 0 -- -- 68
2019-12-07 18:00:00 21.1 5 Sur 19 Sudoeste 0 -- -- 64
2019-12-07 17:00:00 21 11 Sudoeste 17 Sudoeste 0 -- -- 66
2019-12-07 16:00:00 22.1 8 Sur 14 Sudeste 0 -- -- 62
2019-12-07 15:00:00 22 10 Sudeste 15 Sudeste 0 -- -- 61
2019-12-07 14:00:00 23.4 5 Sur 18 Sudoeste 0 -- -- 57
2019-12-07 13:00:00 21.7 14 Sudoeste 19 Sudoeste 0 -- -- 60
2019-12-07 12:00:00 22.1 12 Sur 15 Sur 0 -- -- 59
2019-12-07 11:00:00 20.5 8 Sudeste 16 Sudeste 0 -- -- 63
2019-12-07 10:00:00 21.9 8 Este 16 Este 0 -- -- 60
2019-12-07 09:00:00 17.9 6 Nordeste 17 Norte 0 -- -- 64
2019-12-07 08:00:00 16.4 13 Norte 17 Norte 0 -- -- 62
2019-12-07 07:00:00 16.9 9 Norte 14 Nordeste 0 -- -- 61
2019-12-07 06:00:00 17.9 2 Nordeste 11 Norte 0 -- -- 62
2019-12-07 05:00:00 17.3 6 Norte 17 Norte 0 -- -- 69
2019-12-07 04:00:00 18.3 8 Nordeste 22 Este 0 -- -- 67
2019-12-07 03:00:00 18.4 9 Nordeste 13 Nordeste 0 -- -- 69
2019-12-07 02:00:00 18 9 Norte 14 Nordeste 0 -- -- 67
2019-12-07 01:00:00 19.4 7 Sur 15 Sudoeste 0 -- -- 66
2019-12-07 00:00:00 18.4 9 Nordeste 22 Este 0 -- -- 60
2019-12-06 23:00:00 19.7 8 Oeste 18 Oeste 0 -- -- 59
2019-12-06 22:00:00 19.5 5 Este 20 Noroeste 0 -- -- 59
2019-12-06 21:00:00 19.9 13 Noroeste 19 Norte 0 -- -- 54
2019-12-06 20:00:00 20.2 9 Norte 19 Noroeste 0 -- -- 53
2019-12-06 19:00:00 20.4 10 Norte 33 Noroeste 0 -- -- 51
2019-12-06 18:00:00 20.8 18 Norte 41 Noroeste 0 -- -- 50
2019-12-06 17:00:00 21.4 20 Norte 36 Norte 0 -- -- 50
2019-12-06 16:00:00 21.5 16 Norte 39 Nordeste 0 -- -- 53
2019-12-06 15:00:00 21.4 18 Nordeste 37 Nordeste 0 -- -- 53
2019-12-06 14:00:00 21.4 6 Sudeste 17 Sudeste 0 -- -- 59
2019-12-06 13:00:00 20.5 15 Sudeste 21 Este 0 -- -- 62
2019-12-06 12:00:00 20.2 17 Sudeste 22 Sudeste 0 -- -- 64
2019-12-06 11:00:00 19.9 17 Sudeste 21 Sudeste 0 -- -- 63
2019-12-06 10:00:00 19.9 6 Oeste 20 Noroeste 0 -- -- 57
2019-12-06 09:00:00 18.6 8 Norte 13 Norte 0 -- -- 61
2019-12-06 08:00:00 18.4 5 Este 19 Este 0 -- -- 61
2019-12-06 07:00:00 18 3 Oeste 10 Oeste 0 -- -- 67
2019-12-06 06:00:00 17.3 4 Nordeste 13 Norte 0 -- -- 69
2019-12-06 05:00:00 16.6 6 Norte 17 Norte 0 -- -- 72
2019-12-06 04:00:00 16.5 8 Norte 15 Norte 0 -- -- 72
2019-12-06 03:00:00 16.7 5 Norte 25 Norte 0 -- -- 71
2019-12-06 02:00:00 17.3 9 Norte 32 Noroeste 0.1 -- -- 67
2019-12-06 01:00:00 17.9 14 Norte 29 Norte 0.3 -- -- 66
2019-12-06 00:00:00 18.7 9 Noroeste 21 Noroeste 0 -- -- 61
2019-12-05 23:00:00 17.2 3 Este 20 Este 0.5 -- -- 69
2019-12-05 22:00:00 18 7 Noroeste 24 Oeste 0.1 -- -- 61
2019-12-05 21:00:00 18.7 8 Noroeste 24 Noroeste 0 -- -- 59
2019-12-05 20:00:00 18.8 10 Norte 39 Norte 0 -- -- 56
2019-12-05 19:00:00 19.3 15 Norte 34 Norte 0 -- -- 55
2019-12-05 18:00:00 19 23 Norte 58 Nordeste 0 -- -- 56
2019-12-05 17:00:00 19 19 Norte 41 Norte 0 -- -- 57
2019-12-05 16:00:00 20.6 17 Norte 34 Noroeste 0.1 -- -- 51
2019-12-05 15:00:00 19.8 8 Norte 44 Oeste 0 -- -- 57
2019-12-05 14:00:00 20.1 12 Oeste 51 Norte 0 -- -- 56
2019-12-05 13:00:00 19.3 25 Norte 52 Nordeste 0.2 -- -- 56
2019-12-05 12:00:00 20.7 20 Norte 51 Norte 0 -- -- 50
2019-12-05 11:00:00 19.9 12 Norte 37 Norte 0 -- -- 55
2019-12-05 10:00:00 19.9 12 Norte 37 Noroeste 0 -- -- 54
2019-12-05 09:00:00 19.8 6 Norte 48 Nordeste 0 -- -- 50
2019-12-05 08:00:00 19.2 19 Norte 37 Noroeste 0 -- -- 50
2019-12-05 07:00:00 19 5 Este 41 Norte 0 -- -- 53
2019-12-05 06:00:00 19.4 16 Noroeste 48 Noroeste 0 -- -- 55
2019-12-05 05:00:00 18.9 13 Norte 42 Norte 0 -- -- 63
2019-12-05 04:00:00 18 7 Noroeste 36 Oeste 0 -- -- 76
2019-12-05 03:00:00 18.3 13 Norte 24 Norte 0 -- -- 67
2019-12-05 02:00:00 19.6 6 Norte 22 Oeste 0 -- -- 65
2019-12-05 01:00:00 20 15 Oeste 27 Oeste 0 -- -- 67
2019-12-05 00:00:00 20.1 6 Noroeste 15 Norte 0 -- -- 59
2019-12-04 23:00:00 20.2 5 Noroeste 17 Noroeste 0 -- -- 58
2019-12-04 22:00:00 20.4 8 Noroeste 20 Norte 0 -- -- 57
2019-12-04 21:00:00 20.8 6 Noroeste 27 Nordeste 0 -- -- 56
2019-12-04 20:00:00 20.8 8 Noroeste 26 Norte 0 -- -- 56
2019-12-04 19:00:00 20.8 10 Norte 22 Norte 0 -- -- 55
2019-12-04 18:00:00 21.4 12 Noroeste 33 Oeste 0 -- -- 54
2019-12-04 17:00:00 22.4 14 Noroeste 34 Oeste 0 -- -- 50
2019-12-04 16:00:00 21.2 23 Oeste 33 Noroeste 0 -- -- 56
2019-12-04 15:00:00 21.6 11 Noroeste 31 Nordeste 0 -- -- 55
2019-12-04 14:00:00 20.4 14 Nordeste 45 Oeste 0 -- -- 57
2019-12-04 13:00:00 19.6 34 Oeste 48 Oeste 0 -- -- 61
2019-12-04 12:00:00 22 10 Noroeste 27 Oeste 0 -- -- 46
2019-12-04 11:00:00 21.5 16 Oeste 27 Oeste 0 -- -- 48
2019-12-04 10:00:00 21.2 9 Nordeste 28 Nordeste 0 -- -- 46
2019-12-04 09:00:00 20.1 11 Nordeste 22 Nordeste 0 -- -- 50
2019-12-04 08:00:00 19.4 9 Norte 15 Norte 0 -- -- 54
2019-12-04 07:00:00 18.6 9 Nordeste 21 Norte 0 -- -- 54
2019-12-04 06:00:00 18.1 10 Norte 16 Norte 0 -- -- 55
2019-12-04 05:00:00 16.4 11 Norte 16 Norte 0 -- -- 55
2019-12-04 04:00:00 16.6 12 Norte 17 Norte 0 -- -- 54
2019-12-04 03:00:00 17 9 Norte 14 Norte 0 -- -- 53
2019-12-04 02:00:00 16.6 8 Norte 12 Norte 0 -- -- 54
2019-12-04 01:00:00 17.4 9 Norte 12 Norte 0 -- -- 53
2019-12-04 00:00:00 18.4 4 Norte 7 Nordeste 0 -- -- 51
2019-12-03 23:00:00 18.8 0 Calma 5 Noroeste 0 -- -- 50
2019-12-03 22:00:00 19.4 3 Norte 10 Oeste 0 -- -- 48
2019-12-03 21:00:00 19.7 4 Norte 21 Nordeste 0 -- -- 48
2019-12-03 20:00:00 20 9 Nordeste 24 Nordeste 0 -- -- 46
2019-12-03 19:00:00 20.5 14 Nordeste 25 Nordeste 0 -- -- 47
2019-12-03 18:00:00 21.2 12 Nordeste 23 Nordeste 0 -- -- 48
2019-12-03 17:00:00 22.1 13 Norte 32 Nordeste 0 -- -- 45
2019-12-03 16:00:00 22.3 12 Norte 28 Noroeste 0 -- -- 46
2019-12-03 15:00:00 22.7 13 Norte 31 Norte 0 -- -- 46
2019-12-03 14:00:00 23 12 Noroeste 29 Este 0 -- -- 48
2019-12-03 13:00:00 22.1 18 Nordeste 30 Nordeste 0 -- -- 44
2019-12-03 12:00:00 22.6 10 Nordeste 35 Nordeste 0 -- -- 43
2019-12-03 11:00:00 21.8 13 Norte 31 Norte 0 -- -- 46
2019-12-03 10:00:00 20.9 12 Nordeste 28 Nordeste 0 -- -- 50
2019-12-03 09:00:00 20.6 3 Norte 29 Oeste 0 -- -- 54
2019-12-03 08:00:00 19.9 9 Norte 23 Noroeste 0 -- -- 55
2019-12-03 07:00:00 19.8 10 Norte 23 Norte 0 -- -- 58
2019-12-03 06:00:00 19.3 10 Nordeste 25 Nordeste 0 -- -- 59
2019-12-03 05:00:00 18.8 11 Norte 35 Oeste 0 -- -- 65
2019-12-03 04:00:00 19.8 9 Noroeste 18 Oeste 0 -- -- 58
2019-12-03 03:00:00 19.1 8 Nordeste 20 Norte 0 -- -- 61
2019-12-03 02:00:00 19.3 6 Noroeste 13 Norte 0 -- -- 60
2019-12-03 01:00:00 19.3 7 Nordeste 26 Noroeste 0 -- -- 60
2019-12-03 00:00:00 19.5 12 Nordeste 35 Norte 0 -- -- 59
2019-12-02 23:00:00 20.3 11 Norte 34 Norte 0 -- -- 54
2019-12-02 22:00:00 20.4 12 Norte 35 Norte 0 -- -- 55
2019-12-02 21:00:00 20.4 11 Noroeste 27 Norte 0 -- -- 56
2019-12-02 20:00:00 20.7 11 Noroeste 30 Norte 0 -- -- 55
2019-12-02 19:00:00 21.1 12 Norte 40 Nordeste 0 -- -- 53
2019-12-02 18:00:00 21.5 11 Norte 29 Norte 0 -- -- 52
2019-12-02 17:00:00 22.4 15 Norte 33 Norte 0 -- -- 50
2019-12-02 16:00:00 23.8 3 Norte 17 Sudeste 0 -- -- 54
2019-12-02 15:00:00 22 15 Sur 26 Sur 0 -- -- 68
2019-12-02 14:00:00 22.1 17 Sur 22 Sur 0 -- -- 70
2019-12-02 13:00:00 22.8 12 Sur 17 Sur 0 -- -- 65
2019-12-02 12:00:00 21.4 10 Sur 16 Sudeste 0 -- -- 68
2019-12-02 11:00:00 22.7 13 Sudeste 19 Sudeste 0 -- -- 65
2019-12-02 10:00:00 20.8 11 Sudeste 17 Sudeste 0 -- -- 68
2019-12-02 09:00:00 17.9 10 Nordeste 16 Nordeste 0 -- -- 73
2019-12-02 08:00:00 16.7 12 Norte 18 Norte 0 -- -- 76
2019-12-02 07:00:00 16.4 14 Norte 18 Norte 0 -- -- 75
2019-12-02 06:00:00 16.9 13 Norte 17 Norte 0 -- -- 72
2019-12-02 05:00:00 17 13 Norte 18 Norte 0 -- -- 72
2019-12-02 04:00:00 16.9 11 Norte 16 Norte 0 -- -- 71
2019-12-02 03:00:00 17.9 13 Norte 16 Nordeste 0 -- -- 71
2019-12-02 02:00:00 19.2 10 Nordeste 19 Nordeste 0 -- -- 69
2019-12-02 01:00:00 19.6 11 Nordeste 14 Nordeste 0 -- -- 71
2019-12-02 00:00:00 19.8 5 Norte 17 Norte 0 -- -- 73
2019-12-01 23:00:00 19.9 10 Norte 17 Norte 0 -- -- 74
2019-12-01 22:00:00 20.1 4 Sur 18 Sudeste 0 -- -- 74
2019-12-01 21:00:00 20.4 12 Este 19 Este 0 -- -- 73
2019-12-01 20:00:00 20.2 9 Sudeste 19 Oeste 0 -- -- 76
2019-12-01 19:00:00 20.4 14 Oeste 21 Oeste 0 -- -- 77
2019-12-01 18:00:00 20.9 5 Oeste 21 Sudeste 0 -- -- 73
2019-12-01 17:00:00 22.1 18 Sudeste 21 Sudeste 0 -- -- 69
2019-12-01 16:00:00 22.7 9 Sur 24 Oeste 0 -- -- 70
2019-12-01 15:00:00 22.6 20 Oeste 27 Oeste 0 -- -- 70
2019-12-01 14:00:00 22.2 16 Oeste 23 Oeste 0 -- -- 68
2019-12-01 13:00:00 22.2 12 Sudoeste 21 Sudeste 0 -- -- 71
2019-12-01 12:00:00 21.4 17 Sudeste 25 Sudeste 0 -- -- 73
2019-12-01 11:00:00 21.7 13 Sudeste 19 Sur 0 -- -- 73
2019-12-01 10:00:00 22.1 9 Sur 16 Sudoeste 0 -- -- 73
2019-12-01 09:00:00 18.9 10 Norte 19 Norte 0 -- -- 71
2019-12-01 08:00:00 18.1 13 Norte 17 Nordeste 0 -- -- 71
2019-12-01 07:00:00 17.6 13 Norte 16 Norte 0 -- -- 69
2019-12-01 06:00:00 18.1 12 Norte 15 Norte 0 -- -- 71
2019-12-01 05:00:00 19.5 12 Norte 18 Norte 0 -- -- 71
2019-12-01 04:00:00 19.3 12 Norte 17 Norte 0 -- -- 72
2019-12-01 03:00:00 18.7 8 Norte 12 Nordeste 0 -- -- 64
2019-12-01 02:00:00 19.1 7 Nordeste 14 Este 0 -- -- 68
2019-12-01 01:00:00 20.3 5 Este 9 Sudeste 0 -- -- 67
2019-12-01 00:00:00 21 0 Calma 12 Norte 0 -- -- 39
2019-11-30 23:00:00 21.1 6 Norte 10 Norte 0 -- -- 40
2019-11-30 22:00:00 21.3 9 Norte 12 Norte 0 -- -- 45
2019-11-30 21:00:00 20.7 7 Este 18 Sudeste 0 -- -- 81
2019-11-30 20:00:00 21.3 11 Sudeste 15 Este 0 -- -- 82
2019-11-30 19:00:00 22 5 Nordeste 9 Nordeste 0 -- -- 75
2019-11-30 18:00:00 22.8 0 Calma 8 Este 0 -- -- 71
2019-11-30 17:00:00 24.2 6 Sur 12 Sudeste 0 -- -- 65
2019-11-30 16:00:00 26.4 9 Oeste 18 Oeste 0 -- -- 43
2019-11-30 15:00:00 24.5 15 Oeste 22 Oeste 0 -- -- 54
2019-11-30 14:00:00 24.6 13 Oeste 20 Oeste 0 -- -- 54
2019-11-30 13:00:00 24.5 15 Oeste 18 Oeste 0 -- -- 54
2019-11-30 12:00:00 23.2 8 Sudoeste 21 Oeste 0 -- -- 61
2019-11-30 11:00:00 23 15 Oeste 19 Oeste 0 -- -- 65
2019-11-30 10:00:00 25.2 0 Calma 6 Norte 0 -- -- 40
2019-11-30 09:00:00 22.1 5 Norte 13 Norte 0 -- -- 35
2019-11-30 08:00:00 20.4 11 Norte 16 Norte 0 -- -- 38
2019-11-30 07:00:00 20.4 11 Norte 15 Norte 0 -- -- 40
2019-11-30 06:00:00 20.4 11 Norte 15 Norte 0 -- -- 43
2019-11-30 05:00:00 20.4 10 Norte 14 Norte 0 -- -- 43
2019-11-30 04:00:00 21.6 5 Oeste 10 Nordeste 0 -- -- 44
2019-11-30 03:00:00 21.7 6 Nordeste 13 Norte 0 -- -- 38
2019-11-30 02:00:00 21.7 9 Norte 13 Norte 0 -- -- 40
2019-11-30 01:00:00 21.3 10 Nordeste 12 Norte 0 -- -- 49
2019-11-30 00:00:00 22.3 0 Calma 12 Este 0 -- -- 46
2019-11-29 23:00:00 21.4 8 Este 12 Este 0 -- -- 76
2019-11-29 22:00:00 22.4 6 Sudeste 12 Sudeste 0 -- -- 65
2019-11-29 21:00:00 24.6 9 Nordeste 15 Norte 0 -- -- 35
2019-11-29 20:00:00 25 13 Norte 16 Norte 0 -- -- 38
2019-11-29 19:00:00 23 3 Nordeste 10 Oeste 0 -- -- 67
2019-11-29 18:00:00 23.1 9 Oeste 23 Oeste 0 -- -- 63
2019-11-29 17:00:00 25.1 18 Oeste -- -- -- -- -- 50
2019-11-29 16:00:00 25.1 16 Oeste 24 Oeste 0 -- -- 50
2019-11-29 15:00:00 24.5 15 Oeste 23 Oeste 0 -- -- 58
2019-11-29 14:00:00 24.7 15 Oeste 32 Oeste 0 -- -- 55
2019-11-29 13:00:00 24.8 13 Oeste 29 Oeste 0 -- -- 54
2019-11-29 12:00:00 24.3 13 Oeste 21 Oeste 0 -- -- 59
2019-11-29 11:00:00 24.6 10 Oeste 25 Oeste 0 -- -- 51
2019-11-29 10:00:00 23.9 14 Oeste 23 Oeste 0 -- -- 50
2019-11-29 09:00:00 20.8 3 Norte 10 Norte 0 -- -- 59
2019-11-29 08:00:00 19 10 Norte 17 Norte 0 -- -- 56
2019-11-29 07:00:00 19.3 5 Norte 17 Norte 0 -- -- 59
2019-11-29 06:00:00 18.2 9 Norte 16 Norte 0 -- -- 62
2019-11-29 05:00:00 18.4 12 Norte 17 Norte 0 -- -- 64
2019-11-29 04:00:00 18.2 12 Norte 19 Norte 0 -- -- 64
2019-11-29 03:00:00 18.2 14 Norte 18 Norte 0 -- -- 62
2019-11-29 02:00:00 18.3 11 Norte 15 Nordeste 0 -- -- 59
2019-11-29 01:00:00 18.7 5 Norte 15 Norte 0 -- -- 57
2019-11-29 00:00:00 19.1 12 Norte 14 Norte 0 -- -- 55
2019-11-28 23:00:00 19.3 8 Norte 10 Norte 0 -- -- 60
2019-11-28 22:00:00 19.8 8 Nordeste 14 Norte 0 -- -- 62
2019-11-28 21:00:00 19.9 10 Norte 14 Nordeste 0 -- -- 66
2019-11-28 20:00:00 20.9 2 Nordeste 7 Nordeste 0 -- -- 67
2019-11-28 19:00:00 20.9 0 Calma 11 Oeste 0 -- -- 71
2019-11-28 18:00:00 22.1 4 Oeste 8 Oeste 0 -- -- 62
2019-11-28 17:00:00 21.6 0 Calma 6 Sudeste 0 -- -- 67
2019-11-28 16:00:00 21.5 4 Sudoeste 11 Oeste 0 -- -- 72
2019-11-28 15:00:00 21.5 9 Oeste 12 Oeste 0 -- -- 72
2019-11-28 14:00:00 21.5 12 Oeste 17 Oeste 0 -- -- 75
2019-11-28 13:00:00 20.8 13 Oeste 19 Noroeste 0 -- -- 76
2019-11-28 12:00:00 21.9 10 Oeste 16 Sudoeste 0 -- -- 76
2019-11-28 11:00:00 20.6 10 Oeste 14 Oeste 0 -- -- 77
2019-11-28 10:00:00 21.3 5 Norte 17 Norte 0 -- -- 74
2019-11-28 09:00:00 18.3 13 Norte -- -- -- -- -- 77
2019-11-28 08:00:00 -- 15 Norte 20 Norte 0 -- -- --
2019-11-28 07:00:00 -- 15 Norte 19 Norte 0 -- -- --
2019-11-28 06:00:00 -- 14 Norte 18 Norte 0 -- -- --
2019-11-28 05:00:00 -- 14 Norte 17 Norte 0 -- -- --
2019-11-28 04:00:00 -- 15 Norte 17 Norte 0 -- -- --
2019-11-28 03:00:00 -- 11 Norte 15 Norte 0 -- -- --
2019-11-28 02:00:00 -- 13 Norte 17 Norte 0 -- -- --
2019-11-28 01:00:00 -- 8 Norte 14 Norte 0 -- -- --
2019-11-28 00:00:00 -- 11 Norte 13 Norte 0 -- -- --
2019-11-27 23:00:00 -- 8 Norte 11 Norte 0 -- -- --
2019-11-27 22:00:00 -- 4 Norte 11 Sur 0 -- -- --
2019-11-27 21:00:00 -- 8 Sudeste 15 Sudeste 0 -- -- --
2019-11-27 20:00:00 -- 11 Sudeste 16 Sudeste 0 -- -- --
2019-11-27 19:00:00 -- 13 Sudeste 16 Sudeste 0 -- -- --
2019-11-27 18:00:00 -- 4 Sudeste 8 Sudoeste 0 -- -- --
2019-11-27 17:00:00 -- 5 Sudoeste 10 Sudoeste 0 -- -- --
2019-11-27 16:00:00 -- 8 Sudoeste 14 Oeste 0 -- -- --
2019-11-27 15:00:00 -- 6 Sudoeste 14 Sudoeste 0 -- -- --
2019-11-27 14:00:00 -- 9 Sudoeste 14 Oeste 0 -- -- --
2019-11-27 13:00:00 23.3 8 Oeste 12 Oeste 0 -- -- 68
2019-11-27 05:00:00 17.2 12 Norte 18 Norte 0 -- -- 83
2019-11-27 04:00:00 17.1 14 Norte 19 Norte 0 -- -- 86
2019-11-27 03:00:00 17.9 11 Norte 17 Norte 0 -- -- 84
2019-11-27 02:00:00 17.5 11 Nordeste 15 Nordeste 0 -- -- 84
2019-11-27 01:00:00 17.8 10 Nordeste 14 Norte 0 -- -- 83
2019-11-27 00:00:00 18.1 10 Norte 13 Norte 0 -- -- 82
2019-11-26 23:00:00 18.3 8 Norte 11 Norte 0 -- -- 82
2019-11-26 22:00:00 19.1 6 Norte 9 Norte 0 -- -- 80
2019-11-26 21:00:00 19.5 2 Norte 10 Oeste 0 -- -- 78
2019-11-26 20:00:00 20 6 Oeste 10 Oeste 0 -- -- 77
2019-11-26 19:00:00 20.2 5 Sur 9 Sur 0 -- -- 76
2019-11-26 18:00:00 20.5 8 Sudeste 18 Sudeste 0 -- -- 75
2019-11-26 17:00:00 22.1 14 Sudeste 19 Sudeste 0 -- -- 68
2019-11-26 16:00:00 22.9 11 Sudeste 14 Sudeste 0 -- -- 66
2019-11-26 15:00:00 23 8 Oeste 18 Oeste 0 -- -- 66
2019-11-26 14:00:00 22.8 9 Oeste 15 Oeste 0 -- -- 65
2019-11-26 13:00:00 23.7 4 Sudoeste 9 Oeste 0 -- -- 65
2019-11-26 12:00:00 23.3 4 Sudoeste 12 Oeste 0 -- -- 68
2019-11-26 11:00:00 22.3 4 Sudoeste 9 Oeste 0 -- -- 66
2019-11-26 10:00:00 22.6 4 Sur 14 Norte 0 -- -- 68
2019-11-26 09:00:00 19.7 9 Norte 13 Nordeste 0 -- -- 71
2019-11-26 08:00:00 18.5 10 Norte 15 Norte 0 -- -- 73
2019-11-26 07:00:00 17.8 12 Norte 17 Norte 0 -- -- 76
2019-11-26 06:00:00 17 13 Norte 19 Norte 0 -- -- 77
2019-11-26 05:00:00 17 15 Norte 18 Norte 0 -- -- 77
2019-11-26 04:00:00 17.3 13 Norte 16 Norte 0 -- -- 77
2019-11-26 03:00:00 17.1 14 Norte 17 Norte 0 -- -- 77
2019-11-26 02:00:00 17.7 11 Norte 13 Norte 0 -- -- 76
2019-11-26 01:00:00 18.5 10 Norte 13 Nordeste 0 -- -- 76
2019-11-26 00:00:00 18.7 7 Norte 9 Norte 0 -- -- 76
2019-11-25 23:00:00 19.6 0 Calma 9 Oeste 0 -- -- 73
2019-11-25 22:00:00 19.9 6 Oeste 13 Sudoeste 0 -- -- 73
2019-11-25 21:00:00 20.2 5 Sur 12 Sudeste 0 -- -- 72
2019-11-25 20:00:00 20.3 10 Sudeste 18 Sur 0 -- -- 71
2019-11-25 19:00:00 20.5 15 Sudeste 24 Sudeste 0 -- -- 70
2019-11-25 18:00:00 20.9 17 Sudeste 23 Sudeste 0 -- -- 69
2019-11-25 17:00:00 22.3 8 Sudeste 12 Sudeste 0 -- -- 63
2019-11-25 16:00:00 21.9 7 Sudoeste 19 Oeste 0 -- -- 61
2019-11-25 15:00:00 20.9 12 Oeste 21 Noroeste 0 -- -- 65
2019-11-25 14:00:00 21.6 12 Oeste 17 Oeste 0 -- -- 63
2019-11-25 13:00:00 22.6 11 Sudoeste 16 Sudoeste 0 -- -- 59
2019-11-25 12:00:00 22.5 9 Sudoeste 13 Sudoeste 0 -- -- 60
2019-11-25 11:00:00 23.2 7 Sur 11 Sur 0 -- -- 59
2019-11-25 10:00:00 23.2 4 Sudeste 18 Nordeste 0 -- -- 61
2019-11-25 09:00:00 19 12 Nordeste 21 Nordeste 0 -- -- 64
2019-11-25 08:00:00 17.8 13 Norte 17 Norte 0 -- -- 65
2019-11-25 07:00:00 18.2 11 Norte 18 Norte 0 -- -- 65
2019-11-25 06:00:00 18.6 12 Norte 18 Nordeste 0 -- -- 66
2019-11-25 05:00:00 19.2 10 Norte 14 Norte 0 -- -- 66
2019-11-25 04:00:00 20.3 9 Este 23 Sudeste 0 -- -- 67
2019-11-25 03:00:00 20.4 9 Sur 19 Sur 0 -- -- 68
2019-11-25 02:00:00 20.5 6 Oeste 18 Oeste 0 -- -- 71
2019-11-25 01:00:00 20.4 10 Oeste 20 Sudoeste 0 -- -- 73
2019-11-25 00:00:00 20.7 16 Sudoeste 23 Sudoeste 0 -- -- 75
2019-11-24 23:00:00 20.3 9 Norte 13 Norte 0 -- -- 68
2019-11-24 22:00:00 20.7 6 Sudoeste 10 Sur 0 -- -- 77
2019-11-24 21:00:00 20.7 6 Sur 13 Sur 0 -- -- 77
2019-11-24 20:00:00 20.9 9 Sur 18 Sur 0 -- -- 77
2019-11-24 19:00:00 20.6 10 Sudeste 13 Sudeste 0 -- -- 77
2019-11-24 18:00:00 20.8 9 Sur 13 Sudeste 0 -- -- 76
2019-11-24 17:00:00 21.3 10 Sudeste 13 Sudeste 0 -- -- 73
2019-11-24 16:00:00 22.5 10 Sudeste 12 Sudeste 0 -- -- 68
2019-11-24 15:00:00 23.1 8 Sudoeste 22 Sudoeste 0 -- -- 71
2019-11-24 14:00:00 21.6 17 Sudoeste 21 Sudoeste 0 -- -- 74
2019-11-24 13:00:00 22.6 12 Sudoeste 17 Sudoeste 0 -- -- 71
2019-11-24 12:00:00 22.5 14 Sudoeste 17 Sudoeste 0 -- -- 70
2019-11-24 11:00:00 23.1 7 Sudoeste 11 Sur 0 -- -- 67
2019-11-24 10:00:00 23 2 Nordeste 16 Norte 0 -- -- 67
2019-11-24 09:00:00 18.3 13 Norte 18 Norte 0 -- -- 72
2019-11-24 08:00:00 17.8 13 Norte 18 Nordeste 0 -- -- 74
2019-11-24 07:00:00 17.2 14 Norte 17 Norte 0 -- -- 76
2019-11-24 06:00:00 17.2 13 Norte 17 Nordeste 0 -- -- 75
2019-11-24 05:00:00 17.6 13 Norte 18 Norte 0 -- -- 76
2019-11-24 04:00:00 17.9 13 Norte 16 Norte 0 -- -- 77
2019-11-24 03:00:00 18.2 10 Norte 17 Norte 0 -- -- 77
2019-11-24 02:00:00 18.2 13 Norte 17 Norte 0 -- -- 76
2019-11-24 01:00:00 18.2 13 Norte 15 Norte 0 -- -- 78
2019-11-24 00:00:00 19.4 5 Nordeste 11 Nordeste 0 -- -- 78
2019-11-23 23:00:00 19.4 7 Norte 14 Norte 0 -- -- 80
2019-11-23 22:00:00 20.4 3 Norte 9 Norte 0 -- -- 82
2019-11-23 21:00:00 20.8 4 Norte 9 Noroeste 0 -- -- 81
2019-11-23 20:00:00 20.9 0 Calma 18 Sudeste 0 -- -- 78
2019-11-23 19:00:00 21.3 17 Sudeste 22 Sudeste 0 -- -- 78
2019-11-23 18:00:00 21.5 13 Sudeste 15 Sudeste 0 -- -- 82
2019-11-23 17:00:00 22.1 7 Sudeste 11 Sudeste 0 -- -- 79
2019-11-23 16:00:00 22.3 8 Sudeste 12 Sudeste 0 -- -- 79
2019-11-23 15:00:00 22.7 9 Sudeste 12 Sur 0 -- -- 79
2019-11-23 14:00:00 22.1 8 Sudeste 12 Sudeste 0 -- -- 78
2019-11-23 13:00:00 22.1 7 Sudeste 10 Sur 0 -- -- 79
2019-11-23 12:00:00 22.7 8 Sur 13 Sudeste 0 -- -- 77
2019-11-23 11:00:00 23.2 9 Sudeste 15 Sur 0 -- -- 77
2019-11-23 10:00:00 21.6 12 Sudeste 17 Sudeste 0 -- -- 79
2019-11-23 09:00:00 21.7 0 Calma 4 Este 0 -- -- 83
2019-11-23 08:00:00 19.9 0 Calma 7 Sur 0 -- -- 86
2019-11-23 07:00:00 19.9 4 Sur 10 Sur 0 -- -- 84
2019-11-23 06:00:00 20 7 Sur 10 Sudoeste 0 -- -- 85
2019-11-23 05:00:00 20.2 0 Calma 10 Sur 0 -- -- 84
2019-11-23 04:00:00 20.2 5 Sudoeste 11 Oeste 0 -- -- 84
2019-11-23 03:00:00 20.1 3 Oeste 8 Oeste 0 -- -- 84
2019-11-23 02:00:00 20.3 6 Oeste 12 Oeste 0 -- -- 84
2019-11-23 01:00:00 20.4 7 Oeste 10 Oeste 0 -- -- 84
2019-11-23 00:00:00 20.5 5 Oeste 8 Oeste 0 -- -- 83
2019-11-22 23:00:00 20.5 5 Oeste 8 Sudoeste 0 -- -- 83
2019-11-22 22:00:00 20.4 5 Oeste 8 Oeste 0 -- -- 83
2019-11-22 21:00:00 20.3 4 Oeste 6 Oeste 0 -- -- 82
2019-11-22 20:00:00 20.3 3 Oeste 4 Sudoeste 0 -- -- 81
2019-11-22 19:00:00 20.6 0 Calma 8 Sur 0 -- -- 78
2019-11-22 18:00:00 21.8 3 Sur 6 Sur 0 -- -- 74
2019-11-22 17:00:00 22.7 4 Sudoeste 8 Sudoeste 0 -- -- 73
2019-11-22 16:00:00 23.4 4 Sudoeste 12 Sudoeste 0 -- -- 70
2019-11-22 15:00:00 23.7 9 Oeste 14 Oeste 0 -- -- 70
2019-11-22 14:00:00 23.4 7 Sur 13 Sur 0 -- -- 71
2019-11-22 13:00:00 22.9 10 Sur 15 Sudeste 0 -- -- 73
2019-11-22 12:00:00 21.6 15 Sur 20 Sudeste 0 -- -- 78
2019-11-22 11:00:00 21.2 18 Sudeste 23 Sudeste 0 -- -- 80
2019-11-22 10:00:00 21.5 19 Sudeste 22 Sudeste 0 -- -- 76
2019-11-22 09:00:00 19.2 9 Norte 13 Norte 0 -- -- 81
2019-11-22 08:00:00 18.3 10 Norte 12 Norte 0 -- -- 86
2019-11-22 07:00:00 18.8 6 Norte 12 Norte 0 -- -- 87
2019-11-22 06:00:00 19.6 9 Norte 13 Norte 0 -- -- 89
2019-11-22 05:00:00 19.5 5 Norte 13 Oeste 0 -- -- 89
2019-11-22 04:00:00 20.1 3 Noroeste 16 Noroeste 0 -- -- 88
2019-11-22 03:00:00 20.6 9 Oeste 17 Sudoeste 0 -- -- 88
2019-11-22 02:00:00 20.5 9 Noroeste 19 Oeste 0 -- -- 89
2019-11-22 01:00:00 20.6 9 Oeste 20 Oeste 0 -- -- 87
2019-11-22 00:00:00 20.8 15 Oeste 22 Oeste 0 -- -- 83
2019-11-21 23:00:00 20.8 16 Oeste 25 Oeste 0 -- -- 83
2019-11-21 22:00:00 20.8 14 Oeste 19 Oeste 0 -- -- 82
2019-11-21 21:00:00 20.7 6 Oeste 10 Oeste 0 -- -- 75
2019-11-21 20:00:00 20.6 4 Noroeste 12 Oeste 0 -- -- 73
2019-11-21 19:00:00 20.6 6 Oeste 12 Oeste 0 -- -- 72
2019-11-21 18:00:00 20.8 9 Oeste 18 Oeste 0 -- -- 71
2019-11-21 17:00:00 21.8 7 Oeste 19 Oeste 0 -- -- 70
2019-11-21 16:00:00 21.6 13 Oeste 23 Oeste 0 -- -- 67
2019-11-21 15:00:00 22.2 15 Oeste 22 Oeste 0 -- -- 67
2019-11-21 14:00:00 22.2 13 Oeste 18 Oeste 0 -- -- 69
2019-11-21 13:00:00 22.6 12 Oeste 19 Oeste 0 -- -- 70
2019-11-21 12:00:00 22.6 14 Oeste 17 Oeste 0 -- -- 70
2019-11-21 11:00:00 22.3 13 Oeste 18 Oeste 0 -- -- 68
2019-11-21 10:00:00 21.9 9 Oeste 15 Oeste 0 -- -- 71
2019-11-21 09:00:00 21.1 9 Oeste 14 Oeste 0 -- -- 78
2019-11-21 08:00:00 19.3 6 Norte 9 Norte 0 -- -- 81
2019-11-21 07:00:00 -- -- -- -- -- -- -- -- --
2019-11-21 06:00:00 -- -- -- -- -- -- -- -- --
2019-11-21 05:00:00 -- -- -- -- -- -- -- -- --
2019-11-21 04:00:00 -- -- -- -- -- -- -- -- --
2019-11-21 03:00:00 -- -- -- -- -- -- -- -- --
2019-11-21 02:00:00 -- -- -- -- -- -- -- -- --
2019-11-21 01:00:00 -- -- -- -- -- -- -- -- --
2019-11-21 00:00:00 -- -- -- -- -- -- -- -- --
2019-11-20 23:00:00 -- -- -- -- -- -- -- -- --
2019-11-20 22:00:00 -- -- -- -- -- -- -- -- --
2019-11-20 21:00:00 -- -- -- -- -- -- -- -- --
2019-11-20 20:00:00 20.3 4 Oeste 13 Oeste 0 -- -- 75
2019-11-20 19:00:00 20.4 9 Oeste 15 Noroeste 0 -- -- 75
2019-11-20 18:00:00 20.6 12 Oeste 19 Oeste 0 -- -- 71
2019-11-20 17:00:00 21.3 12 Oeste 19 Oeste 0 -- -- 71
2019-11-20 16:00:00 21.2 13 Oeste 21 Noroeste 0 -- -- 69
2019-11-20 15:00:00 21.4 14 Oeste 19 Oeste 0 -- -- 70
2019-11-20 14:00:00 22.2 12 Oeste 17 Oeste 0 -- -- 67
2019-11-20 13:00:00 22.1 13 Oeste 18 Oeste 0 -- -- 67
2019-11-20 12:00:00 21.7 10 Oeste 17 Oeste 0 -- -- 67
2019-11-20 11:00:00 22.6 9 Oeste 13 Oeste 0 -- -- 64
2019-11-20 10:00:00 22.7 0 Calma 15 Norte 0 -- -- 64
2019-11-20 09:00:00 18.2 11 Norte 16 Norte 0 -- -- 65
2019-11-20 08:00:00 16.9 13 Norte 17 Norte 0 -- -- 66
2019-11-20 07:00:00 16.8 11 Norte 16 Norte 0 -- -- 66
2019-11-20 06:00:00 17.4 12 Norte 19 Norte 0 -- -- 67
2019-11-20 05:00:00 16.9 13 Norte 17 Norte 0 -- -- 69
2019-11-20 04:00:00 17.1 13 Norte 17 Norte 0 -- -- 71
2019-11-20 03:00:00 17.4 13 Norte 16 Norte 0 -- -- 71
2019-11-20 02:00:00 17.6 12 Norte 15 Norte 0 -- -- 72
2019-11-20 01:00:00 18 11 Norte 14 Norte 0 -- -- 73
2019-11-20 00:00:00 18.2 9 Norte 12 Norte 0 -- -- 75
2019-11-19 23:00:00 19.5 5 Nordeste 11 Este 0 -- -- 76
2019-11-19 22:00:00 19.7 5 Este 12 Sudeste 0 -- -- 76
2019-11-19 21:00:00 19.9 9 Este 17 Sudeste 0 -- -- 76
2019-11-19 20:00:00 19.8 10 Este 19 Sudeste 0 -- -- 76
2019-11-19 19:00:00 20.1 16 Este 22 Este 0 -- -- 76
2019-11-19 18:00:00 20.8 17 Sudeste 21 Sudeste 0 -- -- 73
2019-11-19 17:00:00 20.9 13 Sudeste 18 Sudeste 0 -- -- 69
2019-11-19 16:00:00 22.3 13 Sudeste 22 Sudeste 0 -- -- 63
2019-11-19 15:00:00 21.7 20 Sudeste 27 Sudeste 0 -- -- 64
2019-11-19 14:00:00 21.8 22 Sudeste 26 Sudeste 0 -- -- 63
2019-11-19 13:00:00 21.5 20 Sudeste 24 Sudeste 0 -- -- 66
2019-11-19 12:00:00 22.8 16 Sudeste 19 Sudeste 0 -- -- 62
2019-11-19 11:00:00 23 4 Sudeste 9 Sudeste 0 -- -- 61
2019-11-19 10:00:00 21.2 3 Nordeste 14 Norte 0 -- -- 62
2019-11-19 09:00:00 17.7 12 Norte 18 Norte 0 -- -- 66
2019-11-19 08:00:00 16.6 13 Norte 19 Norte 0 -- -- 70
2019-11-19 07:00:00 16.5 14 Norte 19 Norte 0 -- -- 69
2019-11-19 06:00:00 16.4 14 Norte 18 Norte 0 -- -- 68
2019-11-19 05:00:00 16.7 13 Norte 17 Norte 0 -- -- 69
2019-11-19 04:00:00 16.8 14 Norte 18 Norte 0 -- -- 69
2019-11-19 03:00:00 17 14 Norte 18 Norte 0 -- -- 67
2019-11-19 02:00:00 17.1 14 Norte 18 Norte 0 -- -- 67
2019-11-19 01:00:00 17.4 14 Norte 18 Norte 0 -- -- 66
2019-11-19 00:00:00 17.8 13 Norte 15 Norte 0 -- -- 66
2019-11-18 23:00:00 18.3 10 Norte 15 Norte 0 -- -- 67
2019-11-18 22:00:00 18.3 8 Norte 9 Norte 0 -- -- 68
2019-11-18 21:00:00 18.9 6 Nordeste 8 Norte 0 -- -- 67
2019-11-18 20:00:00 19.5 3 Sudeste 13 Sudoeste 0 -- -- 66
2019-11-18 19:00:00 19.8 4 Oeste 12 Oeste 0 -- -- 65
2019-11-18 18:00:00 20.3 8 Oeste 14 Oeste 0 -- -- 63
2019-11-18 17:00:00 21.3 8 Sudoeste 14 Sudoeste 0 -- -- 61
2019-11-18 16:00:00 21.9 9 Sur 13 Sudoeste 0 -- -- 60
2019-11-18 15:00:00 21.9 10 Sudoeste 16 Sudoeste 0 -- -- 60
2019-11-18 14:00:00 22.3 10 Sudoeste 19 Sudoeste 0 -- -- 59
2019-11-18 13:00:00 22.2 12 Oeste 16 Oeste 0 -- -- 59
2019-11-18 12:00:00 22.1 8 Sur 12 Sur 0 -- -- 59
2019-11-18 11:00:00 21.7 7 Sur 10 Sur 0 -- -- 61
2019-11-18 10:00:00 21.5 2 Sur 15 Norte 0 -- -- 59
2019-11-18 09:00:00 17.8 12 Norte 19 Norte 0 -- -- 55
2019-11-18 08:00:00 16 15 Norte 19 Norte 0 -- -- 59
2019-11-18 07:00:00 16 15 Norte 18 Norte 0 -- -- 58
2019-11-18 06:00:00 15.9 15 Norte 19 Norte 0 -- -- 58
2019-11-18 05:00:00 16 15 Norte 18 Norte 0 -- -- 58
2019-11-18 04:00:00 16.1 13 Norte 18 Norte 0 -- -- 60
2019-11-18 03:00:00 16.6 15 Norte 18 Norte 0 -- -- 60
2019-11-18 02:00:00 17.6 9 Norte 15 Norte 0 -- -- 60
2019-11-18 01:00:00 16.9 12 Norte 15 Norte 0 -- -- 64
2019-11-18 00:00:00 17.6 10 Norte 16 Nordeste 0 -- -- 65
2019-11-17 23:00:00 17.8 10 Norte 13 Norte 0 -- -- 64
2019-11-17 22:00:00 18.5 10 Norte 13 Norte 0 -- -- 62
2019-11-17 21:00:00 19.3 0 Calma 18 Sudeste 0 -- -- 64
2019-11-17 20:00:00 20 9 Sur 19 Sur 0 -- -- 64
2019-11-17 19:00:00 20.2 13 Sudoeste 19 Sudoeste 0 -- -- 62
2019-11-17 18:00:00 20.3 12 Sudoeste 21 Sudoeste 0 -- -- 62
2019-11-17 17:00:00 20.5 14 Sudoeste 23 Sur 0 -- -- 61
2019-11-17 16:00:00 20.9 18 Sur 27 Sur 0 -- -- 61
2019-11-17 15:00:00 21 18 Sudoeste 25 Sudoeste 0 -- -- 61
2019-11-17 14:00:00 21.2 16 Sur 21 Sudeste 0 -- -- 61
2019-11-17 13:00:00 21.2 9 Sudeste 18 Sudoeste 0 -- -- 60
2019-11-17 12:00:00 21.2 13 Sudoeste 20 Oeste 0 -- -- 61
2019-11-17 11:00:00 21.9 8 Sudoeste 17 Sudeste 0 -- -- 57
2019-11-17 10:00:00 20.8 12 Sudeste 17 Sudeste 0 -- -- 62
2019-11-17 09:00:00 18 10 Norte 16 Norte 0 -- -- 62
2019-11-17 08:00:00 17.4 9 Norte 17 Norte 0 -- -- 66
2019-11-17 07:00:00 17.7 12 Norte 15 Norte 0 -- -- 66
2019-11-17 06:00:00 17.3 12 Norte 17 Norte 0 -- -- 66
2019-11-17 05:00:00 16.7 14 Norte 17 Norte 0 -- -- 66
2019-11-17 04:00:00 17.4 12 Norte 18 Norte 0 -- -- 65
2019-11-17 03:00:00 17.1 13 Norte 15 Norte 0 -- -- 65
2019-11-17 02:00:00 17.9 10 Norte 14 Norte 0 -- -- 64
2019-11-17 01:00:00 18.1 12 Norte 14 Norte 0 -- -- 63
2019-11-17 00:00:00 17.9 12 Norte 13 Norte 0 -- -- 64
2019-11-16 23:00:00 18.9 6 Norte 11 Sudeste 0 -- -- 62
2019-11-16 22:00:00 20 8 Sudeste 19 Sudeste 0 -- -- 61
2019-11-16 21:00:00 20.4 17 Sudeste 21 Sudeste 0 -- -- 60
2019-11-16 20:00:00 20.5 10 Este 14 Sudeste 0 -- -- 59
2019-11-16 19:00:00 20.7 10 Este 16 Sudeste 0 -- -- 59
2019-11-16 18:00:00 21.3 4 Sudeste 12 Oeste 0 -- -- 54
2019-11-16 17:00:00 23 7 Oeste 26 Sur 0 -- -- 51
2019-11-16 16:00:00 22.1 15 Sur 22 Sur 0 -- -- 56
2019-11-16 15:00:00 23.4 15 Sudeste 21 Sudeste 0 -- -- 54
2019-11-16 14:00:00 22.1 16 Sur 23 Sur 0 -- -- 57
2019-11-16 13:00:00 22.2 14 Sur 26 Sur 0 -- -- 59
2019-11-16 12:00:00 21.2 19 Sudeste 23 Sudeste 0 -- -- 61
2019-11-16 11:00:00 21.7 18 Sudeste 23 Este 0 -- -- 59
2019-11-16 10:00:00 20.6 13 Sudeste 22 Este 0 -- -- 62
2019-11-16 09:00:00 21.9 9 Este 24 Oeste 0 -- -- 58
2019-11-16 08:00:00 19.4 4 Oeste 10 Norte 0 -- -- 64
2019-11-16 07:00:00 18.8 5 Nordeste 15 Este 0 -- -- 64
2019-11-16 06:00:00 18.3 6 Nordeste 10 Nordeste 0 -- -- 64
2019-11-16 05:00:00 18.7 6 Nordeste 13 Sudeste 0 -- -- 62
2019-11-16 04:00:00 18.7 0 Calma 11 Este 0 -- -- 61
2019-11-16 03:00:00 18.8 0 Calma 10 Nordeste 0 -- -- 60
2019-11-16 02:00:00 19.5 5 Nordeste 21 Norte 0 -- -- 56
2019-11-16 01:00:00 19.9 10 Noroeste 21 Oeste 0 -- -- 54
2019-11-16 00:00:00 19.9 9 Norte 19 Norte 0 -- -- 55
2019-11-15 23:00:00 20.2 7 Noroeste 17 Sudeste 0 -- -- 54
2019-11-15 22:00:00 20.1 8 Nordeste 16 Norte 0 -- -- 55
2019-11-15 21:00:00 20.4 0 Calma 22 Noroeste 0 -- -- 50
2019-11-15 20:00:00 20.6 10 Noroeste 22 Norte 0 -- -- 50
2019-11-15 19:00:00 20.8 10 Norte 24 Norte 0 -- -- 49
2019-11-15 18:00:00 21.2 10 Norte 35 Norte 0 -- -- 49
2019-11-15 17:00:00 21.9 15 Norte 40 Nordeste 0 -- -- 48
2019-11-15 16:00:00 22.3 14 Norte 41 Norte 0 -- -- 48
2019-11-15 15:00:00 22.4 7 Sudoeste 23 Sudoeste 0 -- -- 63
2019-11-15 14:00:00 22.2 8 Sudoeste 14 Sur 0 -- -- 63
2019-11-15 13:00:00 22.9 8 Sur 20 Sur 0 -- -- 62
2019-11-15 12:00:00 21.6 11 Sur 18 Sudeste 0 -- -- 67
2019-11-15 11:00:00 20.7 14 Sudeste 18 Sudeste 0 -- -- 68
2019-11-15 10:00:00 22.3 2 Sudeste 5 Este 0 -- -- 65
2019-11-15 09:00:00 20.4 5 Norte 17 Nordeste 0 -- -- 67
2019-11-15 08:00:00 18.6 10 Norte 13 Norte 0 -- -- 71
2019-11-15 07:00:00 18 10 Norte 15 Norte 0 -- -- 72
2019-11-15 06:00:00 17.7 12 Norte 18 Norte 0 -- -- 73
2019-11-15 05:00:00 18.1 14 Norte 19 Nordeste 0 -- -- 73
2019-11-15 04:00:00 17.7 11 Norte 15 Norte 0 -- -- 73
2019-11-15 03:00:00 17.7 14 Norte 16 Norte 0 -- -- 73
2019-11-15 02:00:00 18.1 12 Norte 17 Norte 0 -- -- 72
2019-11-15 01:00:00 18.7 13 Norte 16 Norte 0 -- -- 71
2019-11-15 00:00:00 18.8 11 Norte 15 Norte 0 -- -- 71
2019-11-14 23:00:00 19.1 10 Norte 13 Norte 0 -- -- 71
2019-11-14 22:00:00 19.8 7 Norte 10 Norte 0 -- -- 70
2019-11-14 21:00:00 20.2 8 Norte 15 Sur 0 -- -- 70
2019-11-14 20:00:00 21.3 11 Sur 14 Sudoeste 0 -- -- 70
2019-11-14 19:00:00 20.8 5 Este 8 Sudoeste 0 -- -- 69
2019-11-14 18:00:00 21.7 6 Sudoeste 15 Sudoeste 0 -- -- 67
2019-11-14 17:00:00 22.1 4 Sudoeste 15 Sur 0 -- -- 66
2019-11-14 16:00:00 21.9 13 Sudoeste 17 Sudoeste 0 -- -- 66
2019-11-14 15:00:00 22.2 12 Sudoeste 19 Sudoeste 0 -- -- 63
2019-11-14 14:00:00 23 7 Oeste 14 Oeste 0 -- -- 61
2019-11-14 13:00:00 23 10 Sudoeste 13 Sur 0 -- -- 61
2019-11-14 12:00:00 22.5 9 Sur 12 Sur 0 -- -- 63
2019-11-14 11:00:00 23.2 6 Oeste 10 Oeste 0 -- -- 60
2019-11-14 10:00:00 24.6 0 Calma 12 Norte 0 -- -- 60
2019-11-14 09:00:00 19.4 9 Norte 15 Norte 0 -- -- 60
2019-11-14 08:00:00 18.1 12 Norte 17 Norte 0 -- -- 61
2019-11-14 07:00:00 18.5 13 Norte 16 Norte 0 -- -- 61
2019-11-14 06:00:00 19.1 9 Norte 18 Norte 0 -- -- 61
2019-11-14 05:00:00 18.7 12 Norte 17 Norte 0 -- -- 62
2019-11-14 04:00:00 19 10 Norte 19 Nordeste 0 -- -- 61
2019-11-14 03:00:00 18.7 14 Norte 35 Sudeste 0 -- -- 62
2019-11-14 02:00:00 19.9 9 Nordeste 18 Este 0 -- -- 65
2019-11-14 01:00:00 19.6 9 Norte 15 Norte 0 -- -- 64
2019-11-14 00:00:00 20.5 0 Calma 17 Sudeste 0 -- -- 67
2019-11-13 23:00:00 21.3 12 Este 24 Este 0 -- -- 66
2019-11-13 22:00:00 21.2 10 Este 21 Este 0 -- -- 67
2019-11-13 21:00:00 21.4 16 Este 22 Sur 0 -- -- 68
2019-11-13 20:00:00 21.5 15 Sudeste 31 Este 0 -- -- 68
2019-11-13 19:00:00 21.8 17 Este 28 Este 0 -- -- 66
2019-11-13 18:00:00 22 9 Este 19 Este 0 -- -- 65
2019-11-13 17:00:00 23.2 15 Sudeste 23 Sudeste 0 -- -- 62
2019-11-13 16:00:00 23.5 23 Sudeste 32 Sudeste 0 -- -- 61
2019-11-13 15:00:00 24.5 6 Sur 23 Sudoeste 0 -- -- 60
2019-11-13 14:00:00 23.2 14 Oeste 18 Oeste 0 -- -- 61
2019-11-13 13:00:00 22.9 14 Sur 18 Sudeste 0 -- -- 63
2019-11-13 12:00:00 23.7 10 Sudoeste 14 Sudoeste 0 -- -- 65
2019-11-13 11:00:00 23.8 8 Sudoeste 14 Sudeste 0 -- -- 62
2019-11-13 10:00:00 23.8 12 Sudeste 15 Este 0 -- -- 62
2019-11-13 09:00:00 20.3 13 Norte 17 Norte 0 -- -- 58
2019-11-13 08:00:00 19 11 Nordeste 18 Norte 0 -- -- 60
2019-11-13 07:00:00 19.2 13 Norte 17 Norte 0 -- -- 59
2019-11-13 06:00:00 18.7 13 Norte 16 Norte 0 -- -- 60
2019-11-13 05:00:00 19.5 11 Norte 17 Norte 0 -- -- 60
2019-11-13 04:00:00 19.6 9 Norte 19 Norte 0 -- -- 59
2019-11-13 03:00:00 19.6 12 Norte 17 Norte 0 -- -- 60
2019-11-13 02:00:00 19.9 9 Norte 20 Norte 0 -- -- 59
2019-11-13 01:00:00 19.8 17 Norte 21 Norte 0 -- -- 61
2019-11-13 00:00:00 19.6 12 Norte 16 Norte 0 -- -- 65
2019-11-12 23:00:00 20.5 9 Norte 13 Norte 0 -- -- 67
2019-11-12 22:00:00 20.7 5 Nordeste 12 Nordeste 0 -- -- 76
2019-11-12 21:00:00 21.3 8 Este 14 Este 0 -- -- 78
2019-11-12 20:00:00 21.4 3 Sur 8 Sudeste 0 -- -- 77
2019-11-12 19:00:00 21.9 7 Sudeste 14 Este 0 -- -- 75
2019-11-12 18:00:00 22.4 7 Sudeste 12 Sur 0 -- -- 71
2019-11-12 17:00:00 23.6 9 Sur 15 Sudeste 0 -- -- 66
2019-11-12 16:00:00 24.2 14 Sudeste 20 Sudeste 0 -- -- 63
2019-11-12 15:00:00 25.4 11 Sudeste 14 Sudeste 0 -- -- 62
2019-11-12 14:00:00 23.8 11 Sur 16 Sur 0 -- -- 63
2019-11-12 13:00:00 24.6 9 Sur 16 Sur 0 -- -- 60
2019-11-12 12:00:00 24 13 Sur 18 Sur 0 -- -- 65
2019-11-12 11:00:00 24.1 7 Sudeste 15 Sudeste 0 -- -- 62
2019-11-12 10:00:00 24.2 8 Sudeste 16 Este 0 -- -- 64
2019-11-12 09:00:00 21.6 4 Nordeste 11 Norte 0 -- -- 69
2019-11-12 08:00:00 19.6 10 Norte 14 Nordeste 0 -- -- 73
2019-11-12 07:00:00 19.5 10 Norte 15 Norte 0 -- -- 73
2019-11-12 06:00:00 19.8 8 Nordeste 16 Este 0 -- -- 72
2019-11-12 05:00:00 20.8 10 Nordeste 18 Este 0 -- -- 70
2019-11-12 04:00:00 20.9 10 Nordeste 17 Este 0 -- -- 70
2019-11-12 03:00:00 21.1 11 Nordeste 30 Este 0 -- -- 70
2019-11-12 02:00:00 21.4 13 Nordeste 27 Este 0 -- -- 67
2019-11-12 01:00:00 21.6 10 Este 23 Este 0 -- -- 66
2019-11-12 00:00:00 21.7 12 Nordeste 24 Este 0 -- -- 66